| time (UTC) | temp C | wind direction | speed KPH | gust KPH | rain 1hr cm | rain 24hr cm | rain mn cm | humidity % | barometer mb |
| 20260906184031 | 30 | 167 | 8.0 | 17.7 | 0.00 | 0.00 | 0.00 | 57 | 1012.5 |
| 20260906183546 | 30 | 121 | 9.7 | 17.7 | 0.00 | 0.00 | 0.00 | 56 | 1012.4 |
| 20260906183105 | 30 | 139 | 6.4 | 16.1 | 0.00 | 0.00 | 0.00 | 57 | 1012.4 |
| 20260906182509 | 30 | 155 | 12.9 | 17.7 | 0.00 | 0.00 | 0.00 | 56 | 1012.5 |
| 20260906182014 | 30 | 155 | 8.0 | 19.3 | 0.00 | 0.00 | 0.00 | 57 | 1012.5 |
| 20260906181531 | 30 | 141 | 9.7 | 19.3 | 0.00 | 0.00 | 0.00 | 57 | 1012.6 |
| 20260906181035 | 30 | 113 | 4.8 | 17.7 | 0.00 | 0.00 | 0.00 | 60 | 1012.7 |
| 20260906180546 | 29 | 123 | 8.0 | 17.7 | 0.00 | 0.00 | 0.00 | 59 | 1012.8 |
| 20260906180057 | 30 | 131 | 8.0 | 17.7 | 0.00 | 0.00 | 0.00 | 59 | 1012.9 |
| 20260906175510 | 30 | 119 | 9.7 | 17.7 | 0.00 | 0.00 | 0.00 | 59 | 1012.8 |
| 20260906175016 | 29 | 118 | 11.3 | 17.7 | 0.00 | 0.00 | 0.00 | 59 | 1012.9 |
| 20260906174527 | 29 | 124 | 9.7 | 17.7 | 0.00 | 0.00 | 0.00 | 59 | 1013.0 |
| 20260906174037 | 28 | 124 | 6.4 | 11.3 | 0.00 | 0.00 | 0.00 | 60 | 1013.1 |
| 20260906173537 | 28 | 110 | 8.0 | 12.9 | 0.00 | 0.00 | 0.00 | 60 | 1013.2 |
| 20260906173050 | 28 | 124 | 9.7 | 12.9 | 0.00 | 0.00 | 0.00 | 60 | 1013.3 |
| 20260906172559 | 28 | 87 | 8.0 | 12.9 | 0.00 | 0.00 | 0.00 | 60 | 1013.2 |
| 20260906172005 | 27 | 96 | 6.4 | 11.3 | 0.00 | 0.00 | 0.00 | 60 | 1013.4 |
| 20260906171526 | 27 | 117 | 4.8 | 11.3 | 0.00 | 0.00 | 0.00 | 61 | 1013.5 |
| 20260906171027 | 27 | 111 | 4.8 | 12.9 | 0.00 | 0.00 | 0.00 | 61 | 1013.4 |
| 20260906170537 | 27 | 122 | 6.4 | 12.9 | 0.00 | 0.00 | 0.00 | 61 | 1013.6 |
| 20260906170028 | 27 | 116 | 6.4 | 11.3 | 0.00 | 0.00 | 0.00 | 61 | 1013.5 |
| 20260906165523 | 27 | 120 | 6.4 | 9.7 | 0.00 | 0.00 | 0.00 | 61 | 1013.5 |
| 20260906165036 | 27 | 130 | 4.8 | 14.5 | 0.00 | 0.00 | 0.00 | 61 | 1013.7 |
| 20260906164546 | 27 | 121 | 8.0 | 11.3 | 0.00 | 0.00 | 0.00 | 61 | 1013.7 |
| 20260906164056 | 27 | 125 | 4.8 | 9.7 | 0.00 | 0.00 | 0.00 | 61 | 1013.7 |
| 20260906163505 | 27 | 126 | 3.2 | 6.4 | 0.00 | 0.00 | 0.00 | 62 | 1013.8 |
| 20260906163045 | 27 | 127 | 3.2 | 6.4 | 0.00 | 0.00 | 0.00 | 61 | 1013.9 |
| 20260906162548 | 26 | 143 | 0.0 | 0.0 | 0.00 | 0.00 | 0.00 | 62 | 1013.9 |
| 20260906162055 | 26 | 148 | 0.0 | 0.0 | 0.00 | 0.00 | 0.00 | 62 | 1014.0 |
| 20260906161513 | 26 | 148 | 0.0 | 0.0 | 0.00 | 0.00 | 0.00 | 62 | 1014.0 |
| 20260906161012 | 26 | 118 | 0.0 | 3.2 | 0.00 | 0.00 | 0.00 | 63 | 1013.9 |
| 20260906160524 | 26 | 236 | 0.0 | 4.8 | 0.00 | 0.00 | 0.00 | 63 | 1014.0 |
| 20260906160109 | 26 | 126 | 0.0 | 3.2 | 0.00 | 0.00 | 0.00 | 63 | 1013.9 |
| 20260906155509 | 26 | 229 | 0.0 | 12.9 | 0.00 | 0.00 | 0.00 | 63 | 1014.1 |
| 20260906155020 | 26 | 222 | 0.0 | 17.7 | 0.00 | 0.00 | 0.00 | 63 | 1014.1 |
| 20260906154531 | 26 | 266 | 9.7 | 17.7 | 0.00 | 0.00 | 0.00 | 63 | 1014.6 |
| 20260906154046 | 26 | 257 | 8.0 | 12.9 | 0.00 | 0.00 | 0.00 | 62 | 1014.3 |
| 20260906153545 | 26 | 190 | 6.4 | 14.5 | 0.00 | 0.00 | 0.00 | 63 | 1013.8 |
| 20260906153030 | 26 | 154 | 8.0 | 14.5 | 0.00 | 0.00 | 0.00 | 63 | 1013.6 |
| 20260906152538 | 26 | 131 | 8.0 | 14.5 | 0.00 | 0.00 | 0.00 | 63 | 1013.5 |
| 20260906152047 | 26 | 116 | 8.0 | 16.1 | 0.00 | 0.00 | 0.00 | 63 | 1013.4 |
| 20260906151559 | 26 | 131 | 8.0 | 17.7 | 0.00 | 0.00 | 0.00 | 64 | 1013.4 |
| 20260906151013 | 26 | 89 | 9.7 | 17.7 | 0.00 | 0.00 | 0.00 | 63 | 1013.4 |
| 20260906150521 | 26 | 98 | 9.7 | 19.3 | 0.00 | 0.00 | 0.00 | 64 | 1013.5 |
| 20260906150041 | 26 | 126 | 11.3 | 20.9 | 0.00 | 0.00 | 0.00 | 64 | 1013.5 |
| 20260906145547 | 26 | 98 | 12.9 | 20.9 | 0.00 | 0.00 | 0.00 | 64 | 1013.5 |
| 20260906145057 | 26 | 128 | 11.3 | 20.9 | 0.00 | 0.00 | 0.00 | 64 | 1013.4 |
| 20260906144534 | 26 | 121 | 16.1 | 27.4 | 0.00 | 0.00 | 0.00 | 64 | 1013.4 |
| 20260906144043 | 26 | 134 | 12.9 | 20.9 | 0.00 | 0.00 | 0.00 | 65 | 1013.3 |
| 20260906143557 | 25 | 131 | 14.5 | 25.7 | 0.00 | 0.00 | 0.00 | 66 | 1013.4 |
| 20260906143013 | 25 | 109 | 16.1 | 25.7 | 0.00 | 0.00 | 0.00 | 66 | 1013.2 |
| 20260906142521 | 25 | 113 | 17.7 | 25.7 | 0.00 | 0.00 | 0.00 | 66 | 1013.2 |
| 20260906142030 | 25 | 113 | 16.1 | 25.7 | 0.00 | 0.00 | 0.00 | 67 | 1013.3 |
| 20260906141514 | 25 | 133 | 14.5 | 25.7 | 0.00 | 0.00 | 0.00 | 67 | 1013.4 |
| 20260906141022 | 25 | 125 | 16.1 | 24.1 | 0.00 | 0.00 | 0.00 | 68 | 1013.5 |
| 20260906140531 | 25 | 124 | 14.5 | 24.1 | 0.00 | 0.00 | 0.00 | 68 | 1013.5 |
| 20260906140043 | 25 | 123 | 14.5 | 25.7 | 0.00 | 0.00 | 0.00 | 69 | 1013.5 |
| 20260906135558 | 25 | 117 | 17.7 | 25.7 | 0.00 | 0.00 | 0.00 | 69 | 1013.6 |
| 20260906135003 | 25 | 86 | 16.1 | 22.5 | 0.00 | 0.00 | 0.00 | 69 | 1013.6 |
| 20260906134554 | 25 | 109 | 14.5 | 22.5 | 0.00 | 0.00 | 0.00 | 70 | 1013.7 |
| 20260906134057 | 25 | 124 | 14.5 | 22.5 | 0.00 | 0.00 | 0.00 | 70 | 1013.7 |
| 20260906133509 | 25 | 110 | 16.1 | 22.5 | 0.00 | 0.00 | 0.00 | 70 | 1013.7 |
| 20260906133026 | 25 | 131 | 14.5 | 22.5 | 0.00 | 0.00 | 0.00 | 70 | 1013.7 |
| 20260906132526 | 25 | 129 | 11.3 | 22.5 | 0.00 | 0.00 | 0.00 | 71 | 1013.6 |
| 20260906132035 | 25 | 103 | 14.5 | 22.5 | 0.00 | 0.00 | 0.00 | 72 | 1013.5 |
| 20260906131517 | 25 | 141 | 12.9 | 20.9 | 0.00 | 0.00 | 0.00 | 72 | 1013.6 |
| 20260906131023 | 24 | 139 | 14.5 | 20.9 | 0.00 | 0.00 | 0.00 | 73 | 1013.6 |
| 20260906130535 | 24 | 110 | 11.3 | 22.5 | 0.00 | 0.00 | 0.00 | 73 | 1013.5 |
| 20260906130052 | 24 | 124 | 12.9 | 22.5 | 0.00 | 0.00 | 0.00 | 73 | 1013.5 |
| 20260906125501 | 24 | 116 | 12.9 | 20.9 | 0.00 | 0.00 | 0.00 | 73 | 1013.5 |
| 20260906125009 | 24 | 98 | 14.5 | 19.3 | 0.00 | 0.00 | 0.00 | 73 | 1013.4 |
| 20260906124519 | 24 | 117 | 12.9 | 19.3 | 0.00 | 0.00 | 0.00 | 73 | 1013.4 |
| 20260906124028 | 24 | 119 | 9.7 | 19.3 | 0.00 | 0.00 | 0.00 | 73 | 1013.3 |
| 20260906123540 | 24 | 108 | 9.7 | 20.9 | 0.00 | 0.00 | 0.00 | 73 | 1013.3 |
| 20260906123010 | 24 | 104 | 12.9 | 20.9 | 0.00 | 0.00 | 0.00 | 73 | 1013.2 |
| 20260906122519 | 23 | 103 | 9.7 | 16.1 | 0.00 | 0.00 | 0.00 | 74 | 1013.2 |
| 20260906122026 | 23 | 97 | 11.3 | 16.1 | 0.00 | 0.00 | 0.00 | 74 | 1013.2 |
| 20260906121539 | 23 | 131 | 9.7 | 16.1 | 0.00 | 0.00 | 0.00 | 74 | 1013.1 |
| 20260906121048 | 23 | 115 | 9.7 | 14.5 | 0.00 | 0.00 | 0.00 | 73 | 1013.1 |
| 20260906120554 | 23 | 116 | 9.7 | 14.5 | 0.00 | 0.00 | 0.00 | 73 | 1013.1 |
| 20260906120036 | 23 | 110 | 8.0 | 16.1 | 0.00 | 0.00 | 0.00 | 73 | 1013.0 |
| 20260906115543 | 23 | 112 | 11.3 | 16.1 | 0.00 | 0.00 | 0.00 | 73 | 1012.9 |
| 20260906115055 | 23 | 105 | 9.7 | 12.9 | 0.00 | 0.00 | 0.00 | 73 | 1012.8 |
| 20260906114510 | 23 | 101 | 9.7 | 14.5 | 0.00 | 0.00 | 0.00 | 73 | 1012.9 |
| 20260906114013 | 23 | 93 | 9.7 | 14.5 | 0.00 | 0.00 | 0.00 | 73 | 1012.8 |
| 20260906113524 | 23 | 113 | 8.0 | 12.9 | 0.00 | 0.00 | 0.00 | 73 | 1012.7 |
| 20260906113059 | 23 | 97 | 6.4 | 12.9 | 0.00 | 0.00 | 0.00 | 73 | 1012.8 |
| 20260906113009 | 23 | 107 | 6.4 | 12.9 | 0.00 | 0.00 | 0.00 | 73 | 1012.8 |
| 20260906112513 | 23 | 94 | 4.8 | 9.7 | 0.00 | 0.00 | 0.00 | 73 | 1012.8 |
| 20260906112032 | 23 | 102 | 4.8 | 11.3 | 0.00 | 0.00 | 0.00 | 73 | 1012.7 |
| 20260906111540 | 23 | 101 | 6.4 | 11.3 | 0.00 | 0.00 | 0.00 | 73 | 1012.7 |
| 20260906111045 | 23 | 110 | 8.0 | 11.3 | 0.00 | 0.00 | 0.00 | 73 | 1012.6 |
| 20260906110552 | 23 | 94 | 6.4 | 11.3 | 0.00 | 0.00 | 0.00 | 73 | 1012.5 |
| 20260906110034 | 23 | 94 | 6.4 | 12.9 | 0.00 | 0.00 | 0.00 | 73 | 1012.5 |
| 20260906105537 | 23 | 103 | 6.4 | 12.9 | 0.00 | 0.00 | 0.00 | 73 | 1012.5 |
| 20260906105046 | 23 | 105 | 8.0 | 11.3 | 0.00 | 0.00 | 0.00 | 73 | 1012.5 |
| 20260906104506 | 23 | 109 | 4.8 | 8.0 | 0.00 | 0.00 | 0.00 | 73 | 1012.4 |
| 20260906104009 | 23 | 127 | 3.2 | 6.4 | 0.00 | 0.00 | 0.00 | 73 | 1012.4 |
| 20260906103518 | 23 | 105 | 1.6 | 11.3 | 0.00 | 0.00 | 0.00 | 73 | 1012.5 |
| 20260906103051 | 23 | 121 | 4.8 | 11.3 | 0.00 | 0.00 | 0.00 | 73 | 1012.4 |
| 20260906102559 | 23 | 110 | 6.4 | 9.7 | 0.00 | 0.00 | 0.00 | 73 | 1012.4 |
| 20260906102005 | 23 | 124 | 6.4 | 12.9 | 0.00 | 0.00 | 0.00 | 73 | 1012.4 |
| 20260906101531 | 23 | 110 | 6.4 | 12.9 | 0.00 | 0.00 | 0.00 | 73 | 1012.3 |
| 20260906101030 | 23 | 117 | 6.4 | 12.9 | 0.00 | 0.00 | 0.00 | 73 | 1012.3 |
| 20260906100545 | 23 | 103 | 4.8 | 11.3 | 0.00 | 0.00 | 0.00 | 73 | 1012.2 |
| 20260906100049 | 23 | 103 | 4.8 | 9.7 | 0.00 | 0.00 | 0.00 | 73 | 1012.1 |
| 20260906095559 | 23 | 121 | 4.8 | 9.7 | 0.00 | 0.00 | 0.00 | 73 | 1012.1 |
| 20260906095006 | 23 | 103 | 4.8 | 8.0 | 0.00 | 0.00 | 0.00 | 73 | 1012.1 |
| 20260906094519 | 23 | 103 | 4.8 | 8.0 | 0.00 | 0.00 | 0.00 | 73 | 1012.1 |
| 20260906094025 | 23 | 102 | 4.8 | 8.0 | 0.00 | 0.00 | 0.00 | 73 | 1012.2 |
| 20260906093535 | 23 | 110 | 4.8 | 6.4 | 0.00 | 0.00 | 0.00 | 72 | 1012.2 |
| 20260906093017 | 23 | 92 | 1.6 | 6.4 | 0.00 | 0.00 | 0.00 | 72 | 1012.3 |
| 20260906092523 | 23 | 94 | 1.6 | 4.8 | 0.00 | 0.00 | 0.00 | 71 | 1012.3 |
| 20260906092035 | 23 | 89 | 0.0 | 1.6 | 0.00 | 0.00 | 0.00 | 69 | 1012.3 |
| 20260906091546 | 24 | 96 | 0.0 | 1.6 | 0.00 | 0.00 | 0.00 | 69 | 1012.3 |
| 20260906091057 | 24 | 98 | 0.0 | 3.2 | 0.00 | 0.00 | 0.00 | 68 | 1012.4 |
| 20260906090505 | 24 | 103 | 0.0 | 3.2 | 0.00 | 0.00 | 0.00 | 68 | 1012.3 |
| 20260906090027 | 24 | 110 | 0.0 | 4.8 | 0.00 | 0.00 | 0.00 | 68 | 1012.4 |
| 20260906085524 | 24 | 103 | 0.0 | 9.7 | 0.00 | 0.00 | 0.00 | 68 | 1012.4 |
| 20260906085039 | 24 | 104 | 4.8 | 9.7 | 0.00 | 0.00 | 0.00 | 68 | 1012.4 |
| 20260906084547 | 24 | 102 | 3.2 | 8.0 | 0.00 | 0.00 | 0.00 | 68 | 1012.3 |
| 20260906084053 | 24 | 111 | 4.8 | 11.3 | 0.00 | 0.00 | 0.00 | 68 | 1012.3 |
| 20260906083505 | 24 | 134 | 6.4 | 12.9 | 0.00 | 0.00 | 0.00 | 67 | 1012.2 |
| 20260906083018 | 24 | 113 | 6.4 | 12.9 | 0.00 | 0.00 | 0.00 | 67 | 1012.1 |
| 20260906082527 | 25 | 126 | 6.4 | 14.5 | 0.00 | 0.00 | 0.00 | 67 | 1012.1 |
| 20260906082037 | 25 | 127 | 8.0 | 14.5 | 0.00 | 0.00 | 0.00 | 67 | 1012.0 |
| 20260906081544 | 25 | 116 | 9.7 | 19.3 | 0.00 | 0.00 | 0.00 | 67 | 1012.0 |
| 20260906081056 | 25 | 123 | 9.7 | 19.3 | 0.00 | 0.00 | 0.00 | 67 | 1012.0 |
| 20260906080502 | 25 | 108 | 9.7 | 16.1 | 0.00 | 0.00 | 0.00 | 67 | 1012.0 |
| 20260906080042 | 25 | 138 | 9.7 | 16.1 | 0.00 | 0.00 | 0.00 | 67 | 1012.0 |
| 20260906075545 | 25 | 133 | 9.7 | 16.1 | 0.00 | 0.00 | 0.00 | 67 | 1012.0 |
| 20260906075055 | 25 | 141 | 8.0 | 16.1 | 0.00 | 0.00 | 0.00 | 66 | 1011.9 |
| 20260906074509 | 25 | 115 | 8.0 | 16.1 | 0.00 | 0.00 | 0.00 | 66 | 1011.9 |
| 20260906074023 | 25 | 124 | 11.3 | 16.1 | 0.00 | 0.00 | 0.00 | 66 | 1011.9 |
| 20260906073529 | 25 | 121 | 9.7 | 16.1 | 0.00 | 0.00 | 0.00 | 66 | 1011.9 |
| 20260906073043 | 25 | 119 | 9.7 | 17.7 | 0.00 | 0.00 | 0.00 | 66 | 1011.8 |
| 20260906072553 | 25 | 117 | 11.3 | 17.7 | 0.00 | 0.00 | 0.00 | 66 | 1011.8 |
| 20260906072003 | 25 | 116 | 9.7 | 16.1 | 0.00 | 0.00 | 0.00 | 66 | 1012.0 |
| 20260906071514 | 25 | 104 | 9.7 | 16.1 | 0.00 | 0.00 | 0.00 | 66 | 1012.1 |
| 20260906071024 | 25 | 109 | 9.7 | 19.3 | 0.00 | 0.00 | 0.00 | 65 | 1012.1 |
| 20260906070533 | 25 | 115 | 12.9 | 19.3 | 0.00 | 0.00 | 0.00 | 66 | 1012.0 |
| 20260906070007 | 25 | 131 | 11.3 | 19.3 | 0.00 | 0.00 | 0.00 | 65 | 1012.1 |
| 20260906065517 | 25 | 113 | 11.3 | 17.7 | 0.00 | 0.00 | 0.00 | 65 | 1012.1 |
| 20260906065024 | 25 | 122 | 9.7 | 16.1 | 0.00 | 0.00 | 0.00 | 65 | 1012.1 |
| 20260906064543 | 25 | 112 | 9.7 | 16.1 | 0.00 | 0.00 | 0.00 | 65 | 1012.2 |
| 20260906064051 | 25 | 117 | 9.7 | 17.7 | 0.00 | 0.00 | 0.00 | 65 | 1012.2 |
| 20260906063502 | 25 | 134 | 11.3 | 17.7 | 0.00 | 0.00 | 0.00 | 65 | 1012.2 |
| 20260906063015 | 25 | 128 | 9.7 | 16.1 | 0.00 | 0.00 | 0.00 | 65 | 1012.3 |
| 20260906062522 | 25 | 124 | 9.7 | 19.3 | 0.00 | 0.00 | 0.00 | 65 | 1012.2 |
| 20260906062033 | 25 | 126 | 12.9 | 19.3 | 0.00 | 0.00 | 0.00 | 65 | 1012.1 |
| 20260906061541 | 25 | 127 | 9.7 | 17.7 | 0.00 | 0.00 | 0.00 | 65 | 1012.1 |
| 20260906061052 | 25 | 124 | 12.9 | 19.3 | 0.00 | 0.00 | 0.00 | 65 | 1012.1 |
| 20260906060557 | 25 | 105 | 11.3 | 22.5 | 0.00 | 0.00 | 0.00 | 64 | 1012.1 |
| 20260906060037 | 26 | 115 | 14.5 | 22.5 | 0.00 | 0.00 | 0.00 | 64 | 1012.1 |
| 20260906055544 | 26 | 124 | 12.9 | 19.3 | 0.00 | 0.00 | 0.00 | 64 | 1012.1 |
| 20260906055053 | 26 | 121 | 12.9 | 19.3 | 0.00 | 0.00 | 0.00 | 64 | 1012.2 |
| 20260906054511 | 26 | 129 | 11.3 | 19.3 | 0.00 | 0.00 | 0.00 | 64 | 1012.2 |
| 20260906054019 | 26 | 117 | 14.5 | 20.9 | 0.00 | 0.00 | 0.00 | 64 | 1012.2 |
| 20260906053522 | 26 | 122 | 12.9 | 20.9 | 0.00 | 0.00 | 0.00 | 64 | 1012.1 |
| 20260906053043 | 26 | 108 | 12.9 | 17.7 | 0.00 | 0.00 | 0.00 | 64 | 1012.3 |
| 20260906052544 | 26 | 120 | 9.7 | 16.1 | 0.00 | 0.00 | 0.00 | 64 | 1012.3 |
| 20260906052040 | 26 | 98 | 9.7 | 16.1 | 0.00 | 0.00 | 0.00 | 64 | 1012.2 |
| 20260906051548 | 26 | 109 | 9.7 | 17.7 | 0.00 | 0.00 | 0.00 | 64 | 1012.2 |
| 20260906051057 | 26 | 129 | 11.3 | 17.7 | 0.00 | 0.00 | 0.00 | 64 | 1012.1 |
| 20260906050502 | 26 | 102 | 11.3 | 14.5 | 0.00 | 0.00 | 0.00 | 64 | 1012.2 |
| 20260906050122 | 26 | 103 | 11.3 | 14.5 | 0.00 | 0.00 | 0.00 | 64 | 1012.1 |
| 20260906045508 | 26 | 120 | 11.3 | 14.5 | 0.00 | 0.00 | 0.00 | 64 | 1012.2 |
| 20260906045018 | 26 | 108 | 9.7 | 14.5 | 0.00 | 0.00 | 0.00 | 64 | 1012.2 |
| 20260906044526 | 26 | 109 | 9.7 | 14.5 | 0.00 | 0.00 | 0.00 | 64 | 1012.3 |
| 20260906044033 | 26 | 86 | 8.0 | 14.5 | 0.00 | 0.00 | 0.00 | 64 | 1012.3 |
| 20260906043544 | 26 | 117 | 9.7 | 19.3 | 0.00 | 0.00 | 0.00 | 63 | 1012.4 |
| 20260906043050 | 26 | 98 | 9.7 | 19.3 | 0.00 | 0.00 | 0.00 | 63 | 1012.5 |
| 20260906042558 | 26 | 120 | 8.0 | 14.5 | 0.00 | 0.00 | 0.00 | 64 | 1012.5 |
| 20260906042004 | 26 | 90 | 8.0 | 12.9 | 0.00 | 0.00 | 0.00 | 64 | 1012.5 |
| 20260906041542 | 26 | 67 | 6.4 | 12.9 | 0.00 | 0.00 | 0.00 | 64 | 1012.5 |
| 20260906041054 | 26 | 96 | 4.8 | 9.7 | 0.00 | 0.00 | 0.00 | 64 | 1012.6 |
| 20260906040559 | 26 | 90 | 4.8 | 8.0 | 0.00 | 0.00 | 0.00 | 63 | 1012.6 |
| 20260906040016 | 26 | 111 | 4.8 | 9.7 | 0.00 | 0.00 | 0.00 | 63 | 1012.7 |
| 20260906035522 | 26 | 116 | 4.8 | 12.9 | 0.00 | 0.00 | 0.00 | 63 | 1012.6 |
| 20260906035030 | 26 | 110 | 4.8 | 12.9 | 0.00 | 0.00 | 0.00 | 63 | 1012.6 |
| 20260906034511 | 26 | 89 | 3.2 | 8.0 | 0.00 | 0.00 | 0.00 | 64 | 1012.6 |
| 20260906034018 | 26 | 111 | 3.2 | 8.0 | 0.00 | 0.00 | 0.00 | 64 | 1012.5 |
| 20260906033527 | 26 | 113 | 3.2 | 8.0 | 0.00 | 0.00 | 0.00 | 64 | 1012.4 |
| 20260906033051 | 26 | 96 | 3.2 | 9.7 | 0.00 | 0.00 | 0.00 | 63 | 1012.4 |
| 20260906032552 | 26 | 75 | 4.8 | 9.7 | 0.00 | 0.00 | 0.00 | 64 | 1012.3 |
| 20260906032100 | 26 | 82 | 4.8 | 9.7 | 0.00 | 0.00 | 0.00 | 64 | 1012.3 |
| 20260906032002 | 26 | 85 | 3.2 | 11.3 | 0.00 | 0.00 | 0.00 | 64 | 1012.3 |
| 20260906031514 | 26 | 101 | 4.8 | 11.3 | 0.00 | 0.00 | 0.00 | 64 | 1012.1 |
| 20260906031024 | 26 | 90 | 3.2 | 12.9 | 0.00 | 0.00 | 0.00 | 64 | 1012.1 |
| 20260906030528 | 26 | 112 | 4.8 | 14.5 | 0.00 | 0.00 | 0.00 | 64 | 1011.9 |
| 20260906030042 | 26 | 107 | 4.8 | 14.5 | 0.00 | 0.00 | 0.00 | 64 | 1011.8 |
| 20260906025558 | 27 | 80 | 4.8 | 12.9 | 0.00 | 0.00 | 0.00 | 64 | 1011.7 |
| 20260906025002 | 27 | 107 | 4.8 | 12.9 | 0.00 | 0.00 | 0.00 | 64 | 1011.7 |
| 20260906024523 | 27 | 95 | 6.4 | 12.9 | 0.00 | 0.00 | 0.00 | 63 | 1011.6 |
| 20260906024024 | 27 | 56 | 8.0 | 16.1 | 0.00 | 0.00 | 0.00 | 63 | 1011.5 |
| 20260906023540 | 27 | 104 | 9.7 | 16.1 | 0.00 | 0.00 | 0.00 | 63 | 1011.4 |
| 20260906023045 | 27 | 79 | 6.4 | 12.9 | 0.00 | 0.00 | 0.00 | 63 | 1011.4 |
| 20260906022556 | 27 | 103 | 8.0 | 17.7 | 0.00 | 0.00 | 0.00 | 63 | 1011.4 |
| 20260906022007 | 27 | 112 | 9.7 | 17.7 | 0.00 | 0.00 | 0.00 | 63 | 1011.3 |
| 20260906021526 | 27 | 85 | 8.0 | 16.1 | 0.00 | 0.00 | 0.00 | 63 | 1011.2 |
| 20260906021031 | 27 | 77 | 6.4 | 14.5 | 0.00 | 0.00 | 0.00 | 63 | 1011.2 |
| 20260906020546 | 27 | 83 | 8.0 | 14.5 | 0.00 | 0.00 | 0.00 | 63 | 1011.1 |
| 20260906020048 | 27 | 105 | 6.4 | 12.9 | 0.00 | 0.00 | 0.00 | 63 | 1011.1 |
| 20260906015550 | 27 | 98 | 4.8 | 14.5 | 0.00 | 0.00 | 0.00 | 63 | 1011.0 |
| 20260906015056 | 27 | 86 | 8.0 | 14.5 | 0.00 | 0.00 | 0.00 | 63 | 1010.9 |
| 20260906014517 | 27 | 89 | 6.4 | 9.7 | 0.00 | 0.00 | 0.00 | 63 | 1010.8 |
| 20260906014019 | 27 | 96 | 6.4 | 9.7 | 0.00 | 0.00 | 0.00 | 63 | 1010.7 |
| 20260906013528 | 27 | 94 | 6.4 | 9.7 | 0.00 | 0.00 | 0.00 | 63 | 1010.7 |
| 20260906013008 | 27 | 109 | 4.8 | 9.7 | 0.00 | 0.00 | 0.00 | 63 | 1010.6 |
| 20260906012518 | 27 | 72 | 4.8 | 9.7 | 0.00 | 0.00 | 0.00 | 63 | 1010.6 |
| 20260906012026 | 27 | 113 | 4.8 | 8.0 | 0.00 | 0.00 | 0.00 | 62 | 1010.5 |
| 20260906011540 | 27 | 96 | 3.2 | 9.7 | 0.00 | 0.00 | 0.00 | 62 | 1010.5 |
| 20260906011050 | 28 | 96 | 4.8 | 9.7 | 0.00 | 0.00 | 0.00 | 62 | 1010.5 |
| 20260906010558 | 28 | 103 | 3.2 | 8.0 | 0.00 | 0.00 | 0.00 | 62 | 1010.5 |
| 20260906010014 | 28 | 90 | 3.2 | 6.4 | 0.00 | 0.00 | 0.00 | 61 | 1010.4 |
| 20260906005527 | 28 | 92 | 3.2 | 8.0 | 0.00 | 0.00 | 0.00 | 61 | 1010.4 |
| 20260906005036 | 28 | 73 | 3.2 | 6.4 | 0.00 | 0.00 | 0.00 | 60 | 1010.4 |
| 20260906004542 | 28 | 85 | 3.2 | 9.7 | 0.00 | 0.00 | 0.00 | 60 | 1010.3 |
| 20260906004054 | 29 | 94 | 3.2 | 9.7 | 0.00 | 0.00 | 0.00 | 59 | 1010.3 |
| 20260906003601 | 29 | 103 | 3.2 | 8.0 | 0.00 | 0.00 | 0.00 | 58 | 1010.3 |
| 20260906003501 | 29 | 94 | 4.8 | 8.0 | 0.00 | 0.00 | 0.00 | 58 | 1010.3 |
| 20260906003012 | 30 | 127 | 4.8 | 8.0 | 0.00 | 0.00 | 0.00 | 58 | 1010.2 |
| 20260906002522 | 30 | 98 | 3.2 | 8.0 | 0.00 | 0.00 | 0.00 | 58 | 1010.3 |
| 20260906002028 | 30 | 84 | 3.2 | 8.0 | 0.00 | 0.00 | 0.00 | 58 | 1010.2 |
| 20260906001539 | 30 | 109 | 3.2 | 8.0 | 0.00 | 0.00 | 0.00 | 57 | 1010.1 |
| 20260906001046 | 30 | 116 | 4.8 | 11.3 | 0.00 | 0.00 | 0.00 | 57 | 1010.2 |
| 20260906000559 | 30 | 108 | 4.8 | 11.3 | 0.00 | 0.00 | 0.00 | 57 | 1010.1 |
| 20260906000013 | 30 | 94 | 6.4 | 11.3 | 0.00 | 0.00 | 0.00 | 56 | 1010.1 |
| 20260905235523 | 30 | 110 | 4.8 | 9.7 | 0.00 | 0.00 | 0.00 | 56 | 1010.1 |
| 20260905235032 | 31 | 111 | 6.4 | 12.9 | 0.00 | 0.00 | 0.00 | 55 | 1010.2 |
| 20260905234533 | 31 | 98 | 6.4 | 16.1 | 0.00 | 0.00 | 0.00 | 55 | 1010.2 |
| 20260905234043 | 31 | 93 | 6.4 | 16.1 | 0.00 | 0.00 | 0.00 | 54 | 1010.2 |
| 20260905233552 | 31 | 115 | 6.4 | 12.9 | 0.00 | 0.00 | 0.00 | 54 | 1010.2 |
| 20260905233012 | 31 | 92 | 8.0 | 11.3 | 0.00 | 0.00 | 0.00 | 54 | 1010.2 |
| 20260905232517 | 31 | 103 | 6.4 | 14.5 | 0.00 | 0.00 | 0.00 | 54 | 1010.2 |
| 20260905232022 | 31 | 110 | 9.7 | 14.5 | 0.00 | 0.00 | 0.00 | 53 | 1010.1 |
| 20260905231538 | 32 | 94 | 6.4 | 19.3 | 0.00 | 0.00 | 0.00 | 52 | 1010.1 |
| 20260905231039 | 32 | 108 | 9.7 | 19.3 | 0.00 | 0.00 | 0.00 | 52 | 1010.0 |
| 20260905230552 | 32 | 124 | 11.3 | 17.7 | 0.00 | 0.00 | 0.00 | 51 | 1010.0 |
| 20260905230008 | 32 | 124 | 8.0 | 19.3 | 0.00 | 0.00 | 0.00 | 51 | 1010.0 |
| 20260905225514 | 32 | 108 | 9.7 | 19.3 | 0.00 | 0.00 | 0.00 | 51 | 1010.0 |
| 20260905225022 | 32 | 83 | 9.7 | 14.5 | 0.00 | 0.00 | 0.00 | 51 | 1010.0 |
| 20260905224538 | 32 | 107 | 11.3 | 14.5 | 0.00 | 0.00 | 0.00 | 51 | 1009.9 |
| 20260905224043 | 32 | 140 | 9.7 | 14.5 | 0.00 | 0.00 | 0.00 | 51 | 1009.9 |
| 20260905223555 | 32 | 97 | 9.7 | 17.7 | 0.00 | 0.00 | 0.00 | 52 | 1009.8 |
| 20260905223005 | 32 | 95 | 11.3 | 17.7 | 0.00 | 0.00 | 0.00 | 51 | 1009.8 |
| 20260905222514 | 32 | 104 | 6.4 | 17.7 | 0.00 | 0.00 | 0.00 | 52 | 1009.7 |
| 20260905222026 | 31 | 101 | 11.3 | 17.7 | 0.00 | 0.00 | 0.00 | 51 | 1009.7 |
| 20260905221542 | 31 | 99 | 11.3 | 20.9 | 0.00 | 0.00 | 0.00 | 52 | 1009.7 |
| 20260905221050 | 31 | 107 | 12.9 | 20.9 | 0.00 | 0.00 | 0.00 | 52 | 1009.7 |
| 20260905220555 | 31 | 92 | 12.9 | 19.3 | 0.00 | 0.00 | 0.00 | 51 | 1009.6 |
| 20260905220010 | 32 | 98 | 11.3 | 20.9 | 0.00 | 0.00 | 0.00 | 51 | 1009.6 |
| 20260905215520 | 31 | 94 | 14.5 | 24.1 | 0.00 | 0.00 | 0.00 | 51 | 1009.6 |
| 20260905215025 | 31 | 129 | 14.5 | 24.1 | 0.00 | 0.00 | 0.00 | 51 | 1009.7 |
| 20260905214540 | 31 | 125 | 14.5 | 20.9 | 0.00 | 0.00 | 0.00 | 51 | 1009.7 |
| 20260905214044 | 31 | 122 | 14.5 | 22.5 | 0.00 | 0.00 | 0.00 | 52 | 1009.7 |
| 20260905213553 | 31 | 167 | 12.9 | 22.5 | 0.00 | 0.00 | 0.00 | 53 | 1009.7 |
| 20260905213009 | 31 | 117 | 11.3 | 20.9 | 0.00 | 0.00 | 0.00 | 52 | 1009.8 |
| 20260905212523 | 31 | 156 | 14.5 | 22.5 | 0.00 | 0.00 | 0.00 | 52 | 1009.7 |
| 20260905212024 | 31 | 124 | 12.9 | 25.7 | 0.00 | 0.00 | 0.00 | 52 | 1009.7 |
| 20260905211536 | 31 | 117 | 17.7 | 25.7 | 0.00 | 0.00 | 0.00 | 52 | 1009.9 |
| 20260905211038 | 31 | 121 | 16.1 | 25.7 | 0.00 | 0.00 | 0.00 | 53 | 1009.9 |
| 20260905210552 | 31 | 141 | 16.1 | 30.6 | 0.00 | 0.00 | 0.00 | 52 | 1010.0 |
| 20260905210010 | 31 | 136 | 20.9 | 30.6 | 0.00 | 0.00 | 0.00 | 51 | 1010.2 |
| 20260905205524 | 31 | 122 | 17.7 | 27.4 | 0.00 | 0.00 | 0.00 | 52 | 1010.3 |
| 20260905205026 | 30 | 89 | 17.7 | 25.7 | 0.00 | 0.00 | 0.00 | 52 | 1010.4 |
| 20260905204535 | 30 | 113 | 17.7 | 25.7 | 0.00 | 0.00 | 0.00 | 50 | 1010.4 |
| 20260905204042 | 30 | 84 | 16.1 | 25.7 | 0.00 | 0.00 | 0.00 | 51 | 1010.5 |
| 20260905203557 | 30 | 107 | 14.5 | 24.1 | 0.00 | 0.00 | 0.00 | 50 | 1010.7 |
| 20260905203016 | 30 | 116 | 17.7 | 27.4 | 0.00 | 0.00 | 0.00 | 51 | 1010.7 |
| 20260905202517 | 30 | 129 | 17.7 | 24.1 | 0.00 | 0.00 | 0.00 | 51 | 1010.8 |
| 20260905202030 | 29 | 127 | 16.1 | 27.4 | 0.00 | 0.00 | 0.00 | 51 | 1011.0 |
| 20260905201542 | 30 | 84 | 17.7 | 27.4 | 0.00 | 0.00 | 0.00 | 51 | 1011.1 |
| 20260905201046 | 30 | 121 | 19.3 | 25.7 | 0.00 | 0.00 | 0.00 | 49 | 1011.2 |
| 20260905200555 | 30 | 115 | 11.3 | 22.5 | 0.00 | 0.00 | 0.00 | 53 | 1011.4 |
| 20260905200002 | 30 | 103 | 11.3 | 22.5 | 0.00 | 0.00 | 0.00 | 51 | 1011.7 |
| 20260905195514 | 30 | 84 | 11.3 | 25.7 | 0.00 | 0.00 | 0.00 | 52 | 1012.0 |
| 20260905195026 | 30 | 92 | 11.3 | 24.1 | 0.00 | 0.00 | 0.00 | 50 | 1012.1 |
| 20260905194537 | 30 | 134 | 11.3 | 22.5 | 0.00 | 0.00 | 0.00 | 50 | 1012.2 |
| 20260905194043 | 30 | 78 | 11.3 | 20.9 | 0.00 | 0.00 | 0.00 | 50 | 1012.2 |
| 20260905193557 | 30 | 69 | 11.3 | 20.9 | 0.00 | 0.00 | 0.00 | 49 | 1012.3 |
| 20260905193005 | 30 | 117 | 8.0 | 17.7 | 0.00 | 0.00 | 0.00 | 48 | 1012.4 |
| 20260905192514 | 30 | 92 | 11.3 | 20.9 | 0.00 | 0.00 | 0.00 | 50 | 1012.6 |
| 20260905192024 | 30 | 63 | 12.9 | 22.5 | 0.00 | 0.00 | 0.00 | 48 | 1012.5 |
| 20260905191533 | 30 | 110 | 12.9 | 22.5 | 0.00 | 0.00 | 0.00 | 48 | 1012.5 |
| 20260905191039 | 30 | 101 | 12.9 | 19.3 | 0.00 | 0.00 | 0.00 | 50 | 1012.6 |
| 20260905190548 | 29 | 77 | 4.8 | 16.1 | 0.00 | 0.00 | 0.00 | 49 | 1012.6 |
| 20260905190004 | 29 | 82 | 9.7 | 24.1 | 0.00 | 0.00 | 0.00 | 46 | 1012.6 |
| 20260905185513 | 29 | 77 | 11.3 | 20.9 | 0.00 | 0.00 | 0.00 | 47 | 1012.9 |
| 20260905185026 | 29 | 54 | 6.4 | 17.7 | 0.00 | 0.00 | 0.00 | 49 | 1013.1 |
| 20260905184532 | 29 | 53 | 8.0 | 24.1 | 0.00 | 0.00 | 0.00 | 48 | 1013.2 |